createdAt,value
2019-03-30T00:00:54.551Z,3.20
2019-03-30T00:03:23.444Z,3.20
2019-03-30T00:05:52.314Z,3.20
2019-03-30T00:08:21.208Z,3.30
2019-03-30T00:10:50.162Z,3.30
2019-03-30T00:13:19.069Z,3.30
2019-03-30T00:15:48.148Z,3.30
2019-03-30T00:18:17.087Z,3.20
2019-03-30T00:20:45.957Z,3.20
2019-03-30T00:23:14.939Z,3.10
2019-03-30T00:25:43.843Z,3.00
2019-03-30T00:28:12.744Z,3.00
2019-03-30T00:30:41.614Z,2.90
2019-03-30T00:33:10.522Z,2.70
2019-03-30T00:35:39.413Z,2.60
2019-03-30T00:38:08.284Z,2.40
2019-03-30T00:40:37.184Z,2.40
2019-03-30T00:43:06.100Z,2.30
2019-03-30T00:45:34.968Z,2.30
2019-03-30T00:48:03.915Z,2.30
2019-03-30T00:50:32.922Z,2.30
2019-03-30T00:53:01.845Z,2.30
2019-03-30T00:55:30.746Z,2.40
2019-03-30T00:57:59.707Z,2.40
2019-03-30T01:00:28.609Z,2.40
2019-03-30T01:02:57.567Z,2.40
2019-03-30T01:05:26.502Z,2.40
2019-03-30T01:07:55.385Z,2.30
2019-03-30T01:10:24.529Z,2.30
2019-03-30T01:12:53.552Z,2.30
2019-03-30T01:15:22.517Z,2.20
2019-03-30T01:17:51.431Z,2.20
2019-03-30T01:20:20.354Z,2.30
2019-03-30T01:22:49.368Z,2.20
2019-03-30T01:25:18.242Z,2.30
2019-03-30T01:27:47.208Z,2.30
2019-03-30T01:30:23.025Z,2.40
2019-03-30T01:32:47.236Z,2.30
2019-03-30T01:35:16.335Z,2.30
2019-03-30T01:37:45.345Z,2.30
2019-03-30T01:40:14.452Z,2.20
2019-03-30T01:42:43.310Z,2.20
2019-03-30T01:45:12.304Z,2.10
2019-03-30T01:47:41.223Z,2.30
2019-03-30T01:50:17.131Z,2.20
2019-03-30T01:52:41.059Z,2.20
2019-03-30T01:55:10.036Z,2.20
2019-03-30T01:57:38.897Z,2.20
2019-03-30T02:00:10.345Z,2.20
2019-03-30T02:02:39.216Z,2.10
2019-03-30T02:05:08.195Z,2.10
2019-03-30T02:07:37.114Z,2.10
2019-03-30T02:10:07.885Z,2.10
2019-03-30T02:12:36.774Z,2.20
2019-03-30T02:15:07.047Z,2.10
2019-03-30T02:17:35.904Z,2.10
2019-03-30T02:20:07.758Z,2.10
2019-03-30T02:22:36.711Z,2.30
2019-03-30T02:25:07.288Z,2.30
2019-03-30T02:27:36.169Z,2.20
2019-03-30T02:30:06.727Z,2.20
2019-03-30T02:32:35.568Z,2.10
2019-03-30T02:35:06.166Z,2.00
2019-03-30T02:37:35.065Z,2.00
2019-03-30T02:40:04.965Z,2.00
2019-03-30T02:42:33.977Z,1.90
2019-03-30T02:45:02.916Z,1.90
2019-03-30T02:47:31.772Z,2.00
2019-03-30T02:50:00.806Z,1.90
2019-03-30T02:52:29.649Z,1.90
2019-03-30T02:54:58.535Z,1.80
2019-03-30T02:57:27.470Z,1.80
2019-03-30T02:59:56.364Z,1.70
2019-03-30T03:02:25.249Z,1.80
2019-03-30T03:04:54.143Z,1.70
2019-03-30T03:07:23.029Z,1.70
2019-03-30T03:09:51.917Z,1.70
2019-03-30T03:12:20.807Z,1.80
2019-03-30T03:14:51.738Z,1.70
2019-03-30T03:17:20.289Z,1.60
2019-03-30T03:19:49.221Z,1.60
2019-03-30T03:22:18.143Z,1.50
2019-03-30T03:24:47.043Z,1.50
2019-03-30T03:27:15.918Z,1.40
2019-03-30T03:29:44.891Z,1.40
2019-03-30T03:32:13.824Z,1.30
2019-03-30T03:34:42.736Z,1.30
2019-03-30T03:37:11.581Z,1.30
2019-03-30T03:39:40.495Z,1.30
2019-03-30T03:42:09.498Z,1.30
2019-03-30T03:44:38.387Z,1.30
2019-03-30T03:47:07.277Z,1.40
2019-03-30T03:49:36.138Z,1.40
2019-03-30T03:52:06.028Z,1.40
2019-03-30T03:54:34.915Z,1.30
2019-03-30T03:57:04.370Z,1.30
2019-03-30T03:59:35.082Z,1.10
2019-03-30T04:02:04.466Z,1.10
2019-03-30T04:04:34.271Z,1.00
2019-03-30T04:07:03.190Z,1.10
2019-03-30T04:09:35.049Z,1.10
2019-03-30T04:12:06.909Z,1.10
2019-03-30T04:14:37.559Z,1.20
2019-03-30T04:17:06.570Z,1.10
2019-03-30T04:19:35.467Z,1.10
2019-03-30T04:22:04.614Z,1.00
2019-03-30T04:24:34.367Z,1.00
2019-03-30T04:27:03.299Z,1.00
2019-03-30T04:29:32.276Z,1.10
2019-03-30T04:32:01.251Z,1.00
2019-03-30T04:34:30.160Z,1.00
2019-03-30T04:36:59.140Z,0.90
2019-03-30T04:39:28.039Z,0.90
2019-03-30T04:41:56.947Z,0.80
2019-03-30T04:44:25.950Z,0.80
2019-03-30T04:46:54.933Z,0.80
2019-03-30T04:49:25.004Z,0.80
2019-03-30T04:51:57.663Z,0.80
2019-03-30T04:54:26.282Z,0.80
2019-03-30T04:56:55.266Z,0.70
2019-03-30T05:30:54.902Z,0.80
2019-03-30T05:35:29.995Z,1.00
2019-03-30T05:45:37.025Z,1.50
2019-03-30T05:52:49.555Z,1.70
2019-03-30T05:57:54.224Z,2.00
2019-03-30T06:52:18.289Z,16.80
2019-03-30T07:02:09.212Z,17.40
2019-03-30T07:04:39.174Z,18.60
2019-03-30T07:07:09.452Z,18.80
2019-03-30T07:09:54.980Z,19.10
2019-03-30T07:12:25.726Z,18.90
2019-03-30T07:14:59.022Z,18.30
2019-03-30T07:17:28.166Z,18.40
2019-03-30T07:19:58.459Z,18.70
2019-03-30T07:22:27.372Z,18.50
2019-03-30T07:24:56.329Z,18.70
2019-03-30T07:27:25.288Z,19.00
2019-03-30T07:29:54.232Z,19.20
2019-03-30T07:32:23.631Z,19.40
2019-03-30T07:34:52.637Z,19.80
2019-03-30T07:37:21.672Z,20.00
2019-03-30T07:39:50.605Z,19.80
2019-03-30T07:42:19.550Z,20.00
2019-03-30T07:44:48.561Z,19.80
2019-03-30T07:47:17.450Z,19.70
2019-03-30T07:49:46.507Z,19.50
2019-03-30T07:52:15.488Z,19.60
2019-03-30T07:54:44.501Z,19.30
2019-03-30T07:57:17.117Z,19.10
2019-03-30T07:59:46.129Z,18.70
2019-03-30T08:02:15.104Z,18.40
2019-03-30T08:04:48.327Z,18.00
2019-03-30T08:07:17.337Z,17.50
2019-03-30T08:09:54.949Z,17.30
2019-03-30T08:12:23.917Z,17.10
2019-03-30T08:14:57.119Z,16.80
2019-03-30T08:17:26.051Z,16.50
2019-03-30T08:20:09.792Z,16.00
2019-03-30T08:22:40.508Z,15.70
2019-03-30T08:25:09.620Z,15.70
2019-03-30T08:27:38.510Z,15.60
2019-03-30T08:30:07.973Z,15.80
2019-03-30T08:32:36.821Z,15.80
2019-03-30T08:35:06.946Z,16.00
2019-03-30T08:37:37.542Z,16.10
2019-03-30T08:40:12.718Z,15.90
2019-03-30T08:42:44.240Z,15.80
2019-03-30T08:45:14.392Z,15.70
2019-03-30T08:47:43.431Z,16.20
2019-03-30T08:50:15.988Z,16.50
2019-03-30T08:52:45.392Z,16.50
2019-03-30T08:55:16.928Z,16.60
2019-03-30T08:57:52.667Z,16.80
2019-03-30T09:00:40.489Z,16.90
2019-03-30T09:03:09.971Z,17.10
2019-03-30T09:05:39.617Z,16.60
2019-03-30T09:08:12.107Z,16.60
2019-03-30T09:10:41.016Z,16.80
2019-03-30T09:13:10.020Z,16.70
2019-03-30T09:15:38.972Z,16.80
2019-03-30T09:18:07.842Z,16.80
2019-03-30T09:20:38.337Z,16.60
2019-03-30T09:23:07.214Z,16.70
2019-03-30T09:25:36.215Z,17.00
2019-03-30T09:28:08.027Z,16.90
2019-03-30T09:30:38.567Z,17.00
2019-03-30T09:33:08.604Z,17.30
2019-03-30T09:35:37.571Z,17.40
2019-03-30T09:38:06.587Z,17.50
2019-03-30T09:40:35.528Z,17.70
2019-03-30T09:43:07.412Z,17.70
2019-03-30T09:45:36.384Z,17.70
2019-03-30T09:48:05.304Z,17.80
2019-03-30T09:50:34.265Z,18.10
2019-03-30T09:53:03.194Z,18.20
2019-03-30T09:55:32.405Z,18.20
2019-03-30T09:58:01.302Z,18.30
2019-03-30T10:00:30.236Z,18.50
2019-03-30T10:02:59.100Z,18.70
2019-03-30T10:05:28.038Z,18.30
2019-03-30T10:07:56.994Z,17.90
2019-03-30T10:10:25.938Z,17.50
2019-03-30T10:12:54.925Z,17.40
2019-03-30T10:15:23.870Z,17.40
2019-03-30T10:17:52.849Z,17.50
2019-03-30T10:20:21.779Z,18.00
2019-03-30T10:22:51.705Z,18.30
2019-03-30T10:25:27.174Z,18.50
2019-03-30T10:28:02.863Z,18.50
2019-03-30T10:30:31.897Z,18.60
2019-03-30T10:33:00.810Z,18.80
2019-03-30T10:35:29.827Z,19.00
2019-03-30T10:37:58.685Z,19.20
2019-03-30T10:40:27.770Z,19.10
2019-03-30T10:42:56.735Z,19.00
2019-03-30T10:45:25.740Z,19.00
2019-03-30T10:47:54.641Z,19.10
2019-03-30T10:50:23.594Z,19.10
2019-03-30T10:52:52.454Z,19.20
2019-03-30T10:55:21.393Z,19.20
2019-03-30T10:57:50.360Z,19.50
2019-03-30T11:00:36.919Z,19.90
2019-03-30T11:03:05.874Z,20.20
2019-03-30T11:05:36.350Z,20.70
2019-03-30T11:08:07.579Z,20.80
2019-03-30T11:10:36.487Z,20.90
2019-03-30T11:13:05.365Z,21.30
2019-03-30T11:15:34.551Z,21.20
2019-03-30T11:18:03.501Z,21.60
2019-03-30T11:20:32.393Z,21.80
2019-03-30T11:23:01.268Z,21.90
2019-03-30T11:25:30.174Z,22.10
2019-03-30T11:27:59.009Z,21.70
2019-03-30T11:30:27.879Z,21.80
2019-03-30T11:32:56.641Z,21.90
2019-03-30T11:35:25.514Z,22.00
2019-03-30T11:37:54.489Z,22.10
2019-03-30T11:40:23.352Z,22.20
2019-03-30T11:42:52.194Z,22.10
2019-03-30T11:45:21.043Z,22.30
2019-03-30T11:47:49.895Z,22.50
2019-03-30T11:50:18.814Z,22.60
2019-03-30T11:52:47.701Z,22.60
2019-03-30T11:55:22.101Z,22.60
2019-03-30T11:57:47.061Z,22.50
2019-03-30T12:00:16.055Z,22.40
2019-03-30T12:02:45.013Z,22.30
2019-03-30T12:05:13.928Z,21.40
2019-03-30T12:07:42.769Z,21.00
2019-03-30T12:10:11.871Z,21.10
2019-03-30T12:12:40.750Z,21.30
2019-03-30T12:15:11.260Z,21.60
2019-03-30T12:17:41.236Z,21.70
2019-03-30T12:20:11.764Z,21.80
2019-03-30T12:22:51.952Z,21.80
2019-03-30T12:25:34.518Z,21.70
2019-03-30T12:27:51.402Z,21.30
2019-03-30T12:30:20.268Z,20.90
2019-03-30T12:32:49.149Z,21.00
2019-03-30T12:35:18.020Z,21.20
2019-03-30T12:37:46.913Z,21.00
2019-03-30T12:40:15.778Z,20.90
2019-03-30T12:42:44.641Z,20.80
2019-03-30T12:45:13.800Z,20.80
2019-03-30T12:47:42.680Z,20.80
2019-03-30T12:50:12.456Z,21.10
2019-03-30T12:52:41.419Z,21.30
2019-03-30T12:55:10.368Z,21.20
2019-03-30T12:57:39.227Z,21.10
2019-03-30T13:00:08.867Z,21.00
2019-03-30T13:02:37.750Z,21.30
2019-03-30T13:05:07.562Z,21.40
2019-03-30T13:07:36.550Z,21.20
2019-03-30T13:10:06.892Z,21.30
2019-03-30T13:12:35.777Z,21.70
2019-03-30T13:15:08.886Z,21.90
2019-03-30T13:17:37.687Z,22.20
2019-03-30T13:20:07.640Z,22.30
2019-03-30T13:22:36.584Z,22.70
2019-03-30T13:25:06.477Z,22.80
2019-03-30T13:27:35.341Z,22.80
2019-03-30T13:30:08.514Z,22.60
2019-03-30T13:32:40.463Z,22.30
2019-03-30T13:35:09.286Z,22.00
2019-03-30T13:37:38.214Z,21.50
2019-03-30T13:40:08.280Z,21.20
2019-03-30T13:42:38.627Z,21.10
2019-03-30T13:45:11.531Z,21.10
2019-03-30T13:50:25.134Z,20.70
2019-03-30T13:52:54.064Z,20.90
2019-03-30T13:55:24.496Z,20.80
2019-03-30T13:57:53.471Z,20.90
2019-03-30T14:03:11.713Z,20.70
2019-03-30T14:05:40.569Z,20.60
2019-03-30T14:08:09.478Z,20.70
2019-03-30T14:10:39.119Z,20.70
2019-03-30T14:13:08.187Z,20.70
2019-03-30T14:15:37.031Z,20.90
2019-03-30T14:18:05.908Z,21.00
2019-03-30T14:20:34.800Z,20.90
2019-03-30T14:23:06.363Z,21.00
2019-03-30T14:25:35.200Z,21.10
2019-03-30T14:28:04.092Z,21.20
2019-03-30T14:30:32.952Z,21.20
2019-03-30T14:33:03.413Z,21.40
2019-03-30T14:35:32.266Z,21.50
2019-03-30T14:38:01.132Z,21.60
2019-03-30T14:40:30.039Z,21.60
2019-03-30T14:42:58.918Z,21.60
2019-03-30T14:45:27.748Z,21.60
2019-03-30T14:47:58.000Z,21.70
2019-03-30T14:50:27.071Z,21.70
2019-03-30T14:52:55.943Z,21.50
2019-03-30T14:55:24.806Z,21.40
2019-03-30T14:57:53.753Z,20.90
2019-03-30T15:00:22.736Z,20.20
2019-03-30T15:02:51.696Z,19.90
2019-03-30T15:05:20.585Z,19.90
2019-03-30T15:07:49.457Z,20.00
2019-03-30T15:10:18.282Z,20.20
2019-03-30T15:12:47.165Z,20.40
2019-03-30T15:15:15.991Z,20.60
2019-03-30T15:17:44.794Z,20.80
2019-03-30T15:20:13.911Z,20.80
2019-03-30T15:22:42.800Z,20.80
2019-03-30T15:25:12.112Z,20.80
2019-03-30T15:27:40.970Z,20.70
2019-03-30T15:30:10.198Z,20.70
2019-03-30T15:32:39.055Z,20.60
2019-03-30T15:35:08.962Z,20.50
2019-03-30T15:37:37.835Z,20.40
2019-03-30T15:40:07.036Z,20.20
2019-03-30T15:42:40.167Z,20.00
2019-03-30T15:45:08.480Z,19.90
2019-03-30T15:47:37.268Z,19.80
2019-03-30T15:50:06.889Z,19.70
2019-03-30T15:52:35.640Z,19.70
2019-03-30T15:55:06.519Z,19.60
2019-03-30T15:57:35.972Z,19.60
2019-03-30T16:00:08.052Z,19.70
2019-03-30T16:02:36.905Z,19.60
2019-03-30T16:05:07.068Z,19.50
2019-03-30T16:07:35.912Z,19.50
2019-03-30T16:10:06.032Z,19.50
2019-03-30T16:12:34.969Z,19.40
2019-03-30T16:15:05.745Z,19.30
2019-03-30T16:17:34.560Z,19.20
2019-03-30T16:20:04.420Z,19.20
2019-03-30T16:22:33.372Z,19.10
2019-03-30T16:25:02.198Z,18.90
2019-03-30T16:27:30.983Z,18.70
2019-03-30T16:29:59.813Z,18.60
2019-03-30T16:32:28.678Z,18.60
2019-03-30T16:34:57.428Z,18.50
2019-03-30T16:37:26.219Z,18.40
2019-03-30T16:39:55.095Z,18.40
2019-03-30T16:42:24.781Z,18.30
2019-03-30T16:44:53.649Z,18.20
2019-03-30T16:47:22.595Z,18.20
2019-03-30T16:49:51.365Z,18.00
2019-03-30T16:52:20.202Z,18.00
2019-03-30T16:54:48.953Z,17.80
2019-03-30T16:57:17.820Z,17.70
2019-03-30T16:59:46.661Z,17.70
2019-03-30T17:02:15.508Z,17.50
2019-03-30T17:04:44.359Z,17.30
2019-03-30T17:07:13.207Z,17.00
2019-03-30T17:09:51.006Z,16.80
2019-03-30T17:12:19.792Z,16.60
2019-03-30T17:14:48.651Z,16.40
2019-03-30T17:17:17.545Z,16.20
2019-03-30T17:19:46.455Z,16.00
2019-03-30T17:22:15.349Z,15.80
2019-03-30T17:24:47.044Z,15.60
2019-03-30T17:27:15.947Z,15.40
2019-03-30T17:29:44.805Z,15.20
2019-03-30T17:32:13.848Z,15.10
2019-03-30T17:34:42.814Z,14.90
2019-03-30T17:37:14.481Z,14.60
2019-03-30T17:39:42.210Z,14.50
2019-03-30T17:42:11.072Z,14.30
2019-03-30T17:44:39.983Z,14.10
2019-03-30T17:47:08.929Z,13.80
2019-03-30T17:49:39.502Z,13.60
2019-03-30T17:52:08.502Z,13.30
2019-03-30T17:54:39.860Z,13.10
2019-03-30T17:57:10.060Z,12.90
2019-03-30T17:59:38.961Z,12.60
2019-03-30T18:02:08.377Z,12.40
2019-03-30T18:04:40.388Z,12.20
2019-03-30T18:07:09.389Z,12.10
2019-03-30T18:09:38.365Z,12.20
2019-03-30T18:12:08.860Z,12.10
2019-03-30T18:14:37.774Z,12.00
2019-03-30T18:17:06.657Z,11.80
2019-03-30T18:19:35.583Z,11.60
2019-03-30T18:22:04.468Z,11.50
2019-03-30T18:24:33.296Z,11.40
2019-03-30T18:27:02.400Z,11.30
2019-03-30T18:29:31.469Z,11.20
2019-03-30T18:32:00.422Z,11.10
2019-03-30T18:34:30.211Z,11.00
2019-03-30T18:37:22.704Z,10.90
2019-03-30T18:39:56.133Z,10.80
2019-03-30T18:42:22.446Z,10.80
2019-03-30T18:44:54.485Z,10.60
2019-03-30T18:47:23.506Z,10.40
2019-03-30T18:49:52.455Z,10.30
2019-03-30T18:52:22.814Z,10.30
2019-03-30T18:54:51.855Z,10.30
2019-03-30T18:57:20.789Z,10.30
2019-03-30T18:59:49.746Z,10.10
2019-03-30T19:02:19.354Z,10.10
2019-03-30T19:04:48.605Z,10.00
2019-03-30T19:07:17.562Z,9.90
2019-03-30T19:09:46.446Z,9.70
2019-03-30T19:12:15.363Z,9.60
2019-03-30T19:14:44.343Z,9.50
2019-03-30T19:17:13.220Z,9.50
2019-03-30T19:19:42.153Z,9.40
2019-03-30T19:22:11.043Z,9.30
2019-03-30T19:24:39.962Z,9.30
2019-03-30T19:27:08.858Z,9.20
2019-03-30T19:29:37.766Z,9.10
2019-03-30T19:32:06.635Z,9.20
2019-03-30T19:34:35.702Z,9.10
2019-03-30T19:37:04.593Z,9.00
2019-03-30T19:39:36.250Z,8.90
2019-03-30T19:42:05.132Z,8.80
2019-03-30T19:44:34.092Z,8.70
2019-03-30T19:47:02.925Z,8.70
2019-03-30T19:49:31.840Z,8.50
2019-03-30T19:52:00.692Z,8.50
2019-03-30T19:54:29.647Z,8.40
2019-03-30T19:57:00.880Z,8.30
2019-03-30T19:59:29.831Z,8.20
2019-03-30T20:01:58.737Z,8.10
2019-03-30T20:04:27.656Z,8.10
2019-03-30T20:06:56.536Z,7.90
2019-03-30T20:09:25.430Z,7.80
2019-03-30T20:11:54.302Z,7.80
2019-03-30T20:14:23.147Z,7.80
2019-03-30T20:16:52.131Z,7.80
2019-03-30T20:19:22.536Z,7.70
2019-03-30T20:21:51.542Z,7.60
2019-03-30T20:24:20.441Z,7.60
2019-03-30T20:26:49.331Z,7.50
2019-03-30T20:29:25.270Z,7.60
2019-03-30T20:31:49.005Z,7.60
2019-03-30T20:34:17.990Z,7.70
2019-03-30T20:36:46.885Z,7.80
2019-03-30T20:39:15.732Z,7.80
2019-03-30T20:41:44.720Z,7.50
2019-03-30T20:44:13.600Z,7.40
2019-03-30T20:46:43.819Z,7.20
2019-03-30T20:49:12.835Z,7.10
2019-03-30T20:51:41.760Z,7.10
2019-03-30T20:54:10.620Z,7.00
2019-03-30T20:56:39.523Z,7.00
2019-03-30T20:59:08.379Z,7.10
2019-03-30T21:01:38.474Z,7.20
2019-03-30T21:04:07.546Z,7.20
2019-03-30T21:06:36.462Z,7.20
2019-03-30T21:09:07.071Z,7.10
2019-03-30T21:11:36.289Z,7.10
2019-03-30T21:14:05.276Z,7.00
2019-03-30T21:16:38.030Z,6.90
2019-03-30T21:19:09.950Z,6.80
2019-03-30T21:21:38.833Z,6.70
2019-03-30T21:24:07.673Z,6.80
2019-03-30T21:26:36.587Z,6.70
2019-03-30T21:29:05.477Z,6.60
2019-03-30T21:31:34.390Z,6.60
2019-03-30T21:34:03.293Z,6.50
2019-03-30T21:36:32.186Z,6.50
2019-03-30T21:39:14.639Z,6.50
2019-03-30T21:41:47.011Z,6.40
2019-03-30T21:52:51.647Z,6.40
2019-03-30T21:55:22.106Z,6.40
2019-03-30T21:57:55.689Z,6.40
2019-03-30T22:00:49.251Z,6.40
2019-03-30T22:03:15.528Z,6.20
2019-03-30T22:05:55.328Z,6.00
2019-03-30T22:11:27.022Z,5.90
2019-03-30T22:14:07.542Z,5.80
2019-03-30T22:16:51.515Z,5.90
2019-03-30T22:19:15.496Z,6.00
2019-03-30T22:24:41.201Z,5.80
2019-03-30T22:27:13.755Z,5.70
2019-03-30T22:29:44.547Z,5.60
2019-03-30T22:32:12.934Z,5.70
2019-03-30T22:34:50.479Z,5.50
2019-03-30T22:37:39.735Z,5.50
2019-03-30T22:40:09.593Z,5.60
2019-03-30T22:45:35.760Z,5.70
2019-03-30T22:48:41.543Z,5.60
2019-03-30T22:51:18.571Z,5.50
2019-03-30T22:53:43.850Z,5.30
2019-03-30T22:56:14.485Z,5.30
2019-03-30T22:58:45.206Z,5.30
2019-03-30T23:01:21.495Z,5.20
2019-03-30T23:03:59.315Z,5.20
2019-03-30T23:09:47.488Z,5.20
2019-03-30T23:12:18.448Z,5.10
2019-03-30T23:14:53.950Z,5.10
2019-03-30T23:17:26.420Z,5.10
2019-03-30T23:19:57.020Z,5.00
2019-03-30T23:25:29.560Z,4.80
2019-03-30T23:28:01.056Z,4.60
2019-03-30T23:30:30.105Z,4.40
2019-03-30T23:32:59.137Z,4.40
2019-03-30T23:35:35.597Z,4.40
2019-03-30T23:38:19.767Z,4.40
2019-03-30T23:40:50.130Z,4.40
2019-03-30T23:43:23.489Z,4.40
2019-03-30T23:46:29.810Z,4.50
2019-03-30T23:48:24.705Z,4.70
2019-03-30T23:51:00.693Z,4.60
2019-03-30T23:57:15.736Z,4.50
2019-03-30T23:59:44.678Z,4.30
